Lancaster, OH (43130)

2:05 PM EDT on August 29, 2014 (GMT -0400)
Fairfield County Weather | Change Station
CLOSE
Current Station
Personal Weather Station
Location: Lancaster, OH
Elevation: 958 ft
Nearby Weather Stations

Elev 958 ft 39.75 °N, 82.57 °W | Updated 6 seconds ago

Clear
Clear
81.2 °F
Feels Like 81 °F
N
0.0
Wind Variable Wind from ENE
Gusts 1.0 mph

Today
High -- | Low -- °F
--% Chance of Precip.
Yesterday
High -- | Low -- °F
Precip. -- in
6:55 AM 8:06 PM
Waxing Crescent, 15% visible
Pressure 30.10 in
Visibility 10.0 miles
Clouds Clear
Heat Index 81 °F
Dew Point 57 °F
Humidity 44%
Rainfall 0.00 in
Snow Depth Not available.
UV 10 out of 12
Pollen 10.40 out of 12
Ozone Good
PM2.5 Good
Flu Activity Not available.
METAR KLHQ 291753Z AUTO 07004KT 10SM CLR 28/14 A3012 RMK AO2 SLP192 T02780144 10278 20156 58008

More Conditions Fewer Conditions

Pressure 30.10 in
Visibility 10.0 miles
Clouds Clear
Heat Index 81 °F
Dew Point 57 °F
Humidity 44%
Rainfall 0.00 in
Snow Depth Not available.
UV 10 out of 12
Pollen 10.40 out of 12
Ozone Good
PM2.5 Good
Flu Activity Not available.
METAR KLHQ 291753Z AUTO 07004KT 10SM CLR 28/14 A3012 RMK AO2 SLP192 T02780144 10278 20156 58008

More Conditions Fewer Conditions

10-Day Weather Forecast

Almanac

Astronomy

Aug. 29, 2014 Rise Set
Actual Time 6:55 AM EDT 8:06 PM EDT
Civil Twilight 6:27 AM EDT 8:34 PM EDT
Nautical Twilight 5:54 AM EDT 9:07 PM EDT
Astronomical Twilight 5:19 AM EDT 9:41 PM EDT
Moon 10:43 AM EDT 10:03 PM EDT
Length of Visible Light 14h 06m
Length of Day
13h 10m
Tomorrow will be 2m 28s shorter.
Waxing Crescent, 15% of the Moon is Illuminated
Today
Waxing Crescent
Sep 2
First Quarter
Sep 8
Full
Sep 15
Last Quarter
Sep 24
New

Today's Extremes

State Highs State Lows

Community

WunderPhotos

Upload Photos

1,748,307 photos uploaded!

Nearby

Air Quality

  Air Quality AQ Index Pollutant
Yesterday Good
OZONE
Yesterday Good
PM2.5
Current Good
OZONE
Current Good
PM2.5
Friday Moderate
OZONE
Friday Moderate
PM2.5
Saturday Moderate
OZONE
Saturday Moderate
PM2.5
Sunday Good
OZONE
Sunday Good
PM2.5
Monday Good
PM2.5
Monday Good
OZONE
Tuesday Good
OZONE
Tuesday Good
PM2.5
Wednesday Good
PM2.5
Wednesday Good
OZONE

Snow Depth

Station Depth Elevation
No new snow has been reported.

Earthquake Activity

City Distance Mag. Time & Date
No recent earthquake activity has been reported nearby.
Minimum magnitude displayed is 2.5.

Coastal Water Temperatures

Place Temperature
No Stations Reporting

Nearby Weather Stations